Time;durP1;ratioP1;P1;durP2;ratioP2;P2;SDS_P1;SDS_P2;PMS_P1;PMS_P2;Temp;Humidity;BMP_temperature;BMP_pressure;BME280_temperature;BME280_humidity;BME280_pressure;Samples;Min_cycle;Max_cycle;Signal;HPM_P1;HPM_P2
2021/12/01 00:00:38;;;;;;;56.15;19.27;;;9.40;96.40;;;;;;5114160;27;20043;-72
2021/12/01 00:03:03;;;;;;;55.58;22.30;;;9.40;96.40;;;;;;5096737;27;20043;-72
2021/12/01 00:05:31;;;;;;;55.15;20.85;;;9.40;96.30;;;;;;5114452;27;20084;-76
2021/12/01 00:07:58;;;;;;;53.67;20.17;;;9.40;96.40;;;;;;5113634;27;20043;-75
2021/12/01 00:10:26;;;;;;;56.72;19.75;;;9.40;96.50;;;;;;5113720;27;20062;-75
2021/12/01 00:12:52;;;;;;;61.13;20.25;;;9.40;96.40;;;;;;5113510;27;20576;-76
2021/12/01 00:15:19;;;;;;;48.95;18.40;;;9.40;96.30;;;;;;5113657;27;20054;-76
2021/12/01 00:17:45;;;;;;;43.92;18.58;;;9.40;96.30;;;;;;5132205;27;20091;-73
2021/12/01 00:20:13;;;;;;;50.20;19.08;;;9.40;96.40;;;;;;5131937;27;20047;-73
2021/12/01 00:22:39;;;;;;;51.85;17.08;;;9.30;96.40;;;;;;5132191;27;20376;-76
2021/12/01 00:25:07;;;;;;;49.42;17.63;;;9.40;96.50;;;;;;5132052;27;20043;-73
2021/12/01 00:27:32;;;;;;;44.00;15.57;;;9.40;96.40;;;;;;5131976;27;20050;-73
2021/12/01 00:29:58;;;;;;;46.22;16.35;;;9.40;96.40;;;;;;5132137;27;20055;-74
2021/12/01 00:32:24;;;;;;;36.33;14.63;;;9.30;96.30;;;;;;5131680;27;20403;-76
2021/12/01 00:34:50;;;;;;;47.83;17.25;;;9.40;96.40;;;;;;5112854;27;20120;-77
2021/12/01 00:37:15;;;;;;;36.42;15.00;;;9.30;96.30;;;;;;5131697;27;20134;-74
2021/12/01 00:39:41;;;;;;;44.83;15.75;;;9.30;96.30;;;;;;5112487;27;20035;-77
2021/12/01 00:42:07;;;;;;;43.90;16.85;;;9.30;96.30;;;;;;5112757;27;20548;-77
2021/12/01 00:44:35;;;;;;;47.72;16.23;;;9.30;96.30;;;;;;5113496;27;20038;-77
2021/12/01 00:49:27;;;;;;;41.55;15.60;;;9.20;96.30;;;;;;5131696;27;20077;-73
2021/12/01 00:51:52;;;;;;;36.67;13.50;;;9.30;96.20;;;;;;5131359;27;20499;-77
2021/12/01 00:54:18;;;;;;;39.47;13.80;;;9.30;96.30;;;;;;5131577;27;20113;-75
2021/12/01 00:56:44;;;;;;;38.65;13.82;;;9.20;96.20;;;;;;5113318;27;20047;-76
2021/12/01 00:59:10;;;;;;;34.78;12.73;;;9.20;96.20;;;;;;5131134;27;20047;-77
2021/12/01 01:01:36;;;;;;;33.95;12.05;;;9.20;96.30;;;;;;5131453;27;20129;-73
2021/12/01 01:04:01;;;;;;;35.17;13.15;;;9.20;96.20;;;;;;5113033;27;20138;-76
2021/12/01 01:06:27;;;;;;;30.13;12.48;;;9.20;96.30;;;;;;5112808;27;20091;-77
2021/12/01 01:08:53;;;;;;;36.75;13.50;;;9.20;96.30;;;;;;5095845;27;20104;-77
2021/12/01 01:16:49;;;;;;;30.50;12.55;;;9.20;96.30;;;;;;5112476;27;20051;-77
2021/12/01 01:19:17;;;;;;;26.35;10.98;;;9.20;96.20;;;;;;5112651;27;20114;-76
2021/12/01 01:21:48;;;;;;;35.60;10.55;;;9.20;96.30;;;;;;5112767;27;20047;-78
2021/12/01 01:24:14;;;;;;;31.20;9.85;;;9.20;96.20;;;;;;5112525;27;20104;-76
2021/12/01 01:26:40;;;;;;;26.52;9.98;;;9.20;96.20;;;;;;5112809;27;20053;-77
2021/12/01 01:29:06;;;;;;;38.30;9.82;;;9.20;96.20;;;;;;5112614;28;20131;-75
2021/12/01 01:31:32;;;;;;;23.92;8.65;;;9.20;96.20;;;;;;5112770;28;20483;-72
2021/12/01 01:33:58;;;;;;;26.52;6.55;;;9.20;96.20;;;;;;5111747;28;20407;-75
2021/12/01 01:36:25;;;;;;;22.58;5.60;;;9.30;96.20;;;;;;5112179;28;20043;-76
2021/12/01 01:38:52;;;;;;;20.52;4.90;;;9.30;96.30;;;;;;5112364;28;20384;-77
2021/12/01 01:41:19;;;;;;;23.85;5.70;;;9.40;96.20;;;;;;5112325;28;20063;-76
2021/12/01 01:43:47;;;;;;;26.23;5.13;;;9.30;96.20;;;;;;5112803;28;20399;-77
2021/12/01 01:46:14;;;;;;;25.85;3.75;;;9.40;96.20;;;;;;5112540;28;20043;-77
2021/12/01 01:48:55;;;;;;;23.75;4.43;;;9.40;96.20;;;;;;5112233;28;20043;-76
2021/12/01 01:51:25;;;;;;;24.88;4.13;;;9.40;96.10;;;;;;5097015;27;20046;-77
2021/12/01 01:53:54;;;;;;;18.85;3.83;;;9.40;96.10;;;;;;5116235;27;20039;-75
2021/12/01 01:56:21;;;;;;;19.67;3.38;;;9.50;96.10;;;;;;5116361;27;20116;-77
2021/12/01 01:58:47;;;;;;;25.85;3.03;;;9.40;96.10;;;;;;5116266;27;20441;-77
2021/12/01 02:01:28;;;;;;;17.42;2.55;;;9.40;96.10;;;;;;5116418;27;20043;-77
2021/12/01 02:03:54;;;;;;;17.02;3.60;;;9.50;96.10;;;;;;5116289;27;20483;-72
2021/12/01 02:06:23;;;;;;;21.80;3.00;;;9.50;96.10;;;;;;5116142;27;20035;-77
2021/12/01 02:08:51;;;;;;;16.23;2.92;;;9.60;96.10;;;;;;5116037;27;20047;-76
2021/12/01 02:11:17;;;;;;;14.32;2.10;;;9.60;96.00;;;;;;5116108;27;20146;-77
2021/12/01 02:13:44;;;;;;;11.88;2.05;;;9.60;96.00;;;;;;5099220;27;20047;-72
2021/12/01 02:16:11;;;;;;;14.68;1.60;;;9.60;95.90;;;;;;5115458;27;20514;-74
2021/12/01 02:18:38;;;;;;;9.75;1.60;;;9.60;95.80;;;;;;5099352;27;20047;-77
2021/12/01 02:21:15;;;;;;;12.82;1.40;;;9.60;95.80;;;;;;5115533;27;20406;-72
2021/12/01 02:23:47;;;;;;;11.43;1.60;;;9.60;95.80;;;;;;5099310;27;20039;-76
2021/12/01 02:26:15;;;;;;;15.25;1.50;;;9.60;95.70;;;;;;5115885;27;20039;-77
2021/12/01 02:28:42;;;;;;;18.30;1.80;;;9.60;95.70;;;;;;5134659;27;20047;-72
2021/12/01 02:31:08;;;;;;;20.88;1.88;;;9.60;95.70;;;;;;5115438;27;20415;-74
2021/12/01 02:33:34;;;;;;;15.98;1.85;;;9.50;95.60;;;;;;5115246;27;20596;-78
2021/12/01 02:35:59;;;;;;;17.65;2.15;;;9.50;95.70;;;;;;5098730;27;20118;-76
2021/12/01 02:38:25;;;;;;;13.20;2.15;;;9.50;95.70;;;;;;5115840;27;20130;-76
2021/12/01 02:40:51;;;;;;;16.90;1.70;;;9.50;95.60;;;;;;5115354;27;20587;-76
2021/12/01 02:43:18;;;;;;;19.63;1.77;;;9.50;95.70;;;;;;5115670;27;20480;-76
2021/12/01 02:45:44;;;;;;;18.42;1.48;;;9.50;95.70;;;;;;5098535;27;20111;-77
2021/12/01 02:48:13;;;;;;;18.17;1.73;;;9.50;95.70;;;;;;5098221;27;20043;-77
2021/12/01 02:50:42;;;;;;;20.13;2.67;;;9.50;95.60;;;;;;5115437;27;20043;-76
2021/12/01 02:53:09;;;;;;;15.80;1.50;;;9.60;95.70;;;;;;5115292;27;20065;-72
2021/12/01 02:55:41;;;;;;;17.30;1.30;;;9.60;95.50;;;;;;5098538;27;20039;-76
2021/12/01 02:58:08;;;;;;;18.25;2.33;;;9.60;95.40;;;;;;5114721;27;20043;-76
2021/12/01 03:00:34;;;;;;;14.65;1.30;;;9.60;95.40;;;;;;5115473;27;20510;-75
2021/12/01 03:03:00;;;;;;;19.02;1.38;;;9.60;95.40;;;;;;5114069;27;20082;-76
2021/12/01 03:05:26;;;;;;;18.48;1.75;;;9.60;95.30;;;;;;5115139;27;20552;-76
2021/12/01 03:07:53;;;;;;;16.88;1.50;;;9.60;95.30;;;;;;5133631;27;20043;-76
2021/12/01 03:10:19;;;;;;;22.25;1.92;;;9.60;95.20;;;;;;5114699;27;20051;-76
2021/12/01 03:12:45;;;;;;;23.70;2.50;;;9.60;95.20;;;;;;5115089;27;20043;-75
2021/12/01 03:15:16;;;;;;;15.23;1.50;;;9.60;95.20;;;;;;5114762;27;20051;-75
2021/12/01 03:17:42;;;;;;;12.25;1.52;;;9.70;95.20;;;;;;5115064;27;20047;-76
2021/12/01 03:20:10;;;;;;;18.65;1.77;;;9.70;95.20;;;;;;5114426;27;20051;-75
2021/12/01 03:22:35;;;;;;;19.88;2.05;;;9.60;95.20;;;;;;5114759;27;20050;-77
2021/12/01 03:25:06;;;;;;;20.25;2.78;;;9.60;95.20;;;;;;5115072;27;20103;-74
2021/12/01 03:27:32;;;;;;;26.30;3.05;;;9.70;95.20;;;;;;5114979;27;20054;-72
2021/12/01 03:29:57;;;;;;;17.92;2.40;;;9.60;95.20;;;;;;5114792;27;20814;-76
2021/12/01 03:32:23;;;;;;;23.02;1.90;;;9.60;95.20;;;;;;5114207;27;20104;-73
2021/12/01 03:34:49;;;;;;;16.67;1.88;;;9.60;95.10;;;;;;5114066;27;20047;-75
2021/12/01 03:37:15;;;;;;;22.73;2.40;;;9.60;95.10;;;;;;5114633;27;20108;-77
2021/12/01 03:39:40;;;;;;;26.48;2.00;;;9.70;95.10;;;;;;5133096;27;20062;-72
2021/12/01 03:42:06;;;;;;;25.65;2.67;;;9.70;95.10;;;;;;5114551;27;20058;-75
2021/12/01 03:44:32;;;;;;;27.98;3.08;;;9.60;95.00;;;;;;5132764;27;20051;-71
2021/12/01 03:46:58;;;;;;;22.65;2.45;;;9.70;95.00;;;;;;5133130;27;20050;-76
2021/12/01 03:49:24;;;;;;;32.75;3.30;;;9.60;95.00;;;;;;5132901;27;20051;-75
2021/12/01 03:51:49;;;;;;;26.33;3.55;;;9.70;94.90;;;;;;5114032;27;20043;-75
2021/12/01 03:54:15;;;;;;;27.20;2.70;;;9.70;94.90;;;;;;5114443;27;20039;-75
2021/12/01 03:56:40;;;;;;;26.20;3.20;;;9.70;94.90;;;;;;5114210;27;20035;-76
2021/12/01 03:59:06;;;;;;;32.28;4.00;;;9.70;94.90;;;;;;5113931;27;20043;-75
2021/12/01 04:01:33;;;;;;;26.92;3.80;;;9.70;95.00;;;;;;5114001;27;20122;-76
2021/12/01 04:03:58;;;;;;;40.83;4.38;;;9.70;95.00;;;;;;5114371;27;20410;-76
2021/12/01 04:06:25;;;;;;;29.10;3.88;;;9.70;95.00;;;;;;5113936;27;20042;-74
2021/12/01 04:08:51;;;;;;;35.20;4.75;;;9.60;95.10;;;;;;5113702;27;20043;-74
2021/12/01 04:11:17;;;;;;;40.55;4.93;;;9.60;95.30;;;;;;5113916;27;20053;-76
2021/12/01 04:13:43;;;;;;;37.97;4.00;;;9.60;95.50;;;;;;5113612;27;20057;-75
2021/12/01 04:16:08;;;;;;;33.00;4.40;;;9.60;95.40;;;;;;5113018;27;20066;-76
2021/12/01 04:18:35;;;;;;;34.72;3.63;;;9.50;95.70;;;;;;5113951;27;20043;-74
2021/12/01 04:21:01;;;;;;;27.65;3.25;;;9.60;95.80;;;;;;5132319;27;20069;-75
2021/12/01 04:23:26;;;;;;;39.00;4.25;;;9.60;95.70;;;;;;5132249;27;20064;-73
2021/12/01 04:25:52;;;;;;;30.58;3.63;;;9.60;95.80;;;;;;5113416;27;20047;-77
2021/12/01 04:28:18;;;;;;;30.88;4.25;;;9.60;95.90;;;;;;5113478;27;20707;-76
2021/12/01 04:30:44;;;;;;;26.75;2.58;;;9.60;95.80;;;;;;5113567;27;20051;-72
2021/12/01 04:33:10;;;;;;;40.28;3.75;;;9.60;96.00;;;;;;5113224;27;20043;-76
2021/12/01 04:35:35;;;;;;;35.70;3.65;;;9.60;96.00;;;;;;5113338;27;20096;-76
2021/12/01 04:38:01;;;;;;;33.30;3.20;;;9.60;95.90;;;;;;5113185;27;20123;-76
2021/12/01 04:40:27;;;;;;;27.30;2.92;;;9.60;96.10;;;;;;5113121;27;20046;-77
2021/12/01 04:42:53;;;;;;;39.88;5.72;;;9.60;96.30;;;;;;5113152;27;20039;-76
2021/12/01 04:45:19;;;;;;;19.88;1.83;;;9.60;96.20;;;;;;5113051;27;20495;-73
2021/12/01 04:47:50;;;;;;;16.98;2.00;;;9.70;96.30;;;;;;5096418;27;20389;-72
2021/12/01 04:50:19;;;;;;;13.18;1.92;;;9.60;96.30;;;;;;5131223;27;20080;-76
2021/12/01 04:52:45;;;;;;;18.80;3.08;;;9.70;96.40;;;;;;5113059;27;20051;-72
2021/12/01 04:55:11;;;;;;;19.63;2.92;;;9.60;96.30;;;;;;5096008;27;20039;-76
2021/12/01 04:57:45;;;;;;;13.48;2.17;;;9.70;96.40;;;;;;5132052;27;20039;-74
2021/12/01 05:00:14;;;;;;;16.63;1.70;;;9.70;96.50;;;;;;5131358;27;20097;-75
2021/12/01 05:02:40;;;;;;;7.90;1.42;;;9.60;96.40;;;;;;5113128;27;20035;-73
2021/12/01 05:05:06;;;;;;;6.97;1.13;;;9.70;96.30;;;;;;5112767;27;20470;-74
2021/12/01 05:07:32;;;;;;;4.53;0.90;;;9.70;96.40;;;;;;5113075;27;20062;-72
2021/12/01 05:09:58;;;;;;;4.28;0.63;;;9.70;96.50;;;;;;5112837;27;20043;-76
2021/12/01 05:12:23;;;;;;;3.55;0.47;;;9.60;96.40;;;;;;5112307;27;20039;-74
2021/12/01 05:14:49;;;;;;;1.13;0.30;;;9.60;96.40;;;;;;5112483;27;20059;-75
2021/12/01 05:17:15;;;;;;;2.90;0.30;;;9.60;96.40;;;;;;5112323;27;20054;-74
2021/12/01 05:19:41;;;;;;;3.72;0.85;;;9.60;96.30;;;;;;5131528;27;20058;-76
2021/12/01 05:22:06;;;;;;;1.63;0.47;;;9.60;96.30;;;;;;5130747;27;20053;-73
2021/12/01 05:24:32;;;;;;;1.98;0.30;;;9.60;96.30;;;;;;5112766;27;20392;-73
2021/12/01 05:26:58;;;;;;;3.17;0.38;;;9.60;96.30;;;;;;5130855;27;20054;-74
2021/12/01 05:29:24;;;;;;;2.15;0.30;;;9.60;96.30;;;;;;5130940;27;20407;-75
2021/12/01 05:31:52;;;;;;;2.53;0.30;;;9.50;96.20;;;;;;5112653;28;20079;-76
2021/12/01 05:34:18;;;;;;;1.35;0.13;;;9.60;96.20;;;;;;5130574;28;20043;-71
2021/12/01 05:36:44;;;;;;;1.55;0.05;;;9.50;96.20;;;;;;5131180;28;20058;-75
2021/12/01 05:39:10;;;;;;;1.60;0.10;;;9.50;96.10;;;;;;5130786;28;20043;-75
2021/12/01 05:41:35;;;;;;;1.38;0.20;;;9.40;96.10;;;;;;5130783;28;20479;-74
2021/12/01 05:44:01;;;;;;;2.35;0.30;;;9.40;96.20;;;;;;5112351;28;20114;-74
2021/12/01 05:46:27;;;;;;;1.88;0.20;;;9.40;96.20;;;;;;5112403;28;20047;-72
2021/12/01 05:48:54;;;;;;;3.97;0.20;;;9.40;96.20;;;;;;5111557;28;20043;-75
2021/12/01 05:51:20;;;;;;;2.15;0.10;;;9.40;96.30;;;;;;5112394;28;20051;-76
2021/12/01 05:53:46;;;;;;;0.40;0.00;;;9.30;96.30;;;;;;5112229;28;20043;-72
2021/12/01 05:56:12;;;;;;;2.17;0.30;;;9.30;96.20;;;;;;5094997;28;20504;-75
2021/12/01 05:58:37;;;;;;;0.95;0.10;;;9.30;96.30;;;;;;5112496;28;20051;-74
2021/12/01 06:01:03;;;;;;;2.92;0.20;;;9.30;96.20;;;;;;5112434;28;20043;-75
2021/12/01 06:03:29;;;;;;;1.50;0.20;;;9.30;96.20;;;;;;5112634;28;20043;-72
2021/12/01 06:05:55;;;;;;;4.20;0.57;;;9.20;96.30;;;;;;5130565;28;20082;-75
2021/12/01 06:08:20;;;;;;;2.70;0.47;;;9.30;96.30;;;;;;5112170;28;20526;-75
2021/12/01 06:10:46;;;;;;;3.83;0.32;;;9.20;96.30;;;;;;5111953;28;20053;-74
2021/12/01 06:13:16;;;;;;;3.88;0.20;;;9.20;96.30;;;;;;5112079;28;20039;-75
2021/12/01 06:15:42;;;;;;;3.70;0.30;;;9.20;96.20;;;;;;5091659;28;20412;-75
2021/12/01 06:18:08;;;;;;;4.38;0.40;;;9.20;96.20;;;;;;5108483;28;20055;-75
2021/12/01 06:20:33;;;;;;;3.72;0.25;;;9.20;96.10;;;;;;5110392;28;20370;-76
2021/12/01 06:22:59;;;;;;;7.05;0.60;;;9.20;96.10;;;;;;5108731;28;20055;-75
2021/12/01 06:25:25;;;;;;;4.72;1.05;;;9.20;96.10;;;;;;5108682;28;20411;-75
2021/12/01 06:27:51;;;;;;;7.72;1.30;;;9.20;96.10;;;;;;5108707;28;20362;-75
2021/12/01 06:30:17;;;;;;;4.97;0.93;;;9.20;96.10;;;;;;5108555;28;20040;-76
2021/12/01 06:32:43;;;;;;;11.13;1.30;;;9.20;96.10;;;;;;5108052;28;20052;-72
2021/12/01 06:35:08;;;;;;;9.27;0.65;;;9.30;96.10;;;;;;5109977;28;20097;-74
2021/12/01 06:37:34;;;;;;;9.13;1.17;;;9.20;96.10;;;;;;5110693;28;20040;-74
2021/12/01 06:40:00;;;;;;;7.18;0.93;;;9.30;96.20;;;;;;5095350;28;20144;-75
2021/12/01 06:42:25;;;;;;;13.23;0.98;;;9.30;96.20;;;;;;5111943;28;20181;-75
2021/12/01 06:44:51;;;;;;;7.60;0.63;;;9.30;96.20;;;;;;5111909;28;20052;-75
2021/12/01 06:47:17;;;;;;;11.05;1.00;;;9.30;96.10;;;;;;5094828;28;20048;-75
2021/12/01 06:49:45;;;;;;;11.13;0.80;;;9.30;96.10;;;;;;5095371;28;20047;-76
2021/12/01 06:52:12;;;;;;;12.35;0.70;;;9.30;96.20;;;;;;5111625;28;20055;-73
2021/12/01 06:54:39;;;;;;;9.13;0.98;;;9.40;96.10;;;;;;5112174;28;20404;-76
2021/12/01 06:57:04;;;;;;;9.15;0.70;;;9.30;96.10;;;;;;5094557;28;20563;-74
2021/12/01 06:59:30;;;;;;;13.02;1.27;;;9.30;96.00;;;;;;5111931;28;20127;-71
2021/12/01 07:01:56;;;;;;;14.35;2.20;;;9.40;96.00;;;;;;5111488;28;20054;-70
2021/12/01 07:04:21;;;;;;;14.88;2.05;;;9.40;95.90;;;;;;5094403;28;20046;-77
2021/12/01 07:06:47;;;;;;;20.95;2.58;;;9.40;96.10;;;;;;5111588;28;20470;-76
2021/12/01 07:09:18;;;;;;;18.00;1.77;;;9.40;96.00;;;;;;5111409;28;20103;-77
2021/12/01 07:11:45;;;;;;;16.48;1.70;;;9.40;95.90;;;;;;5113392;28;20053;-76
2021/12/01 07:14:11;;;;;;;13.98;2.42;;;9.40;96.00;;;;;;5112745;27;20567;-75
2021/12/01 07:16:37;;;;;;;12.65;1.55;;;9.40;96.00;;;;;;5133239;27;20125;-76
2021/12/01 07:19:03;;;;;;;19.85;2.33;;;9.40;96.10;;;;;;5098019;27;20039;-77
2021/12/01 07:21:29;;;;;;;13.20;1.42;;;9.40;95.90;;;;;;5114743;27;20039;-77
2021/12/01 07:23:54;;;;;;;14.70;1.45;;;9.40;96.00;;;;;;5114645;27;20070;-78
2021/12/01 07:26:20;;;;;;;18.83;2.28;;;9.40;96.00;;;;;;5113324;27;20122;-77
2021/12/01 07:28:45;;;;;;;13.65;1.95;;;9.40;96.00;;;;;;5133231;27;20062;-71
2021/12/01 07:31:11;;;;;;;18.70;1.90;;;9.30;96.00;;;;;;5114564;27;20035;-71
2021/12/01 07:33:36;;;;;;;24.58;2.95;;;9.40;95.90;;;;;;5132633;27;20043;-78
2021/12/01 07:36:04;;;;;;;20.92;2.03;;;9.40;95.90;;;;;;5133272;27;20047;-71
2021/12/01 07:38:30;;;;;;;22.85;2.22;;;9.40;95.80;;;;;;5114760;27;20480;-76
2021/12/01 07:40:56;;;;;;;20.38;1.60;;;9.40;95.90;;;;;;5114289;27;20054;-70
2021/12/01 07:43:21;;;;;;;20.33;1.73;;;9.40;95.80;;;;;;5133310;27;20051;-78
2021/12/01 07:45:47;;;;;;;18.17;2.22;;;9.40;95.90;;;;;;5132926;27;20047;-76
2021/12/01 07:48:13;;;;;;;26.77;2.22;;;9.40;95.70;;;;;;5113737;27;20039;-73
2021/12/01 07:50:40;;;;;;;12.13;0.82;;;9.40;95.70;;;;;;5132682;27;20117;-77
2021/12/01 07:53:06;;;;;;;16.98;1.67;;;9.30;95.40;;;;;;5114058;27;20125;-72
2021/12/01 07:55:32;;;;;;;15.35;1.77;;;9.20;94.90;;;;;;5114311;27;20131;-73
2021/12/01 07:57:57;;;;;;;20.83;1.55;;;9.10;94.60;;;;;;5114111;27;20480;-74
2021/12/01 08:00:23;;;;;;;17.05;2.10;;;9.00;94.70;;;;;;5113636;27;20377;-75
2021/12/01 08:02:48;;;;;;;17.02;2.80;;;8.90;94.40;;;;;;5113617;27;20082;-72
2021/12/01 08:05:14;;;;;;;20.13;2.20;;;8.80;94.10;;;;;;5113966;27;20039;-74
2021/12/01 08:07:40;;;;;;;16.58;1.48;;;8.70;94.20;;;;;;5114179;27;20039;-72
2021/12/01 08:10:07;;;;;;;19.67;2.28;;;8.70;93.50;;;;;;5113423;27;20495;-77
2021/12/01 08:12:34;;;;;;;16.13;2.75;;;8.60;92.20;;;;;;5097430;27;20112;-74
2021/12/01 08:15:02;;;;;;;22.58;2.28;;;8.60;92.50;;;;;;5096641;27;20083;-74
2021/12/01 08:17:27;;;;;;;21.02;2.38;;;8.50;93.10;;;;;;5113599;27;20446;-73
2021/12/01 08:19:53;;;;;;;15.07;2.15;;;8.50;93.30;;;;;;5113491;27;20047;-74
2021/12/01 08:22:18;;;;;;;20.77;1.98;;;8.50;92.70;;;;;;5113341;27;20054;-75
2021/12/01 08:24:44;;;;;;;21.92;3.08;;;8.50;92.90;;;;;;5113965;27;20043;-73
2021/12/01 08:27:09;;;;;;;26.00;2.92;;;8.60;93.00;;;;;;5113273;27;20062;-74
2021/12/01 08:29:36;;;;;;;22.48;2.30;;;8.60;93.10;;;;;;5113714;27;20511;-76
2021/12/01 08:32:02;;;;;;;18.10;1.80;;;8.70;92.60;;;;;;5096510;27;20442;-74
2021/12/01 08:34:27;;;;;;;14.70;1.45;;;8.70;92.80;;;;;;5096258;27;20035;-76
2021/12/01 08:36:53;;;;;;;18.50;1.73;;;8.70;93.30;;;;;;5113322;27;20039;-76
2021/12/01 08:39:18;;;;;;;23.88;2.13;;;8.60;93.80;;;;;;5113387;27;20043;-74
2021/12/01 08:41:44;;;;;;;26.50;1.83;;;8.50;94.30;;;;;;5113423;27;20185;-73
2021/12/01 08:44:10;;;;;;;15.13;1.95;;;8.50;94.60;;;;;;5112757;27;20121;-72
2021/12/01 08:46:36;;;;;;;18.05;1.88;;;8.50;94.80;;;;;;5113334;27;20530;-70
2021/12/01 08:49:02;;;;;;;30.70;2.20;;;8.50;94.80;;;;;;5113339;27;20069;-72
2021/12/01 08:51:30;;;;;;;18.00;1.90;;;8.50;94.80;;;;;;5112959;27;20047;-71
2021/12/01 08:53:56;;;;;;;23.00;1.70;;;8.50;94.90;;;;;;5112943;27;20075;-74
2021/12/01 08:56:21;;;;;;;19.85;2.72;;;8.40;95.10;;;;;;5112835;27;20047;-73
2021/12/01 08:58:47;;;;;;;21.35;1.88;;;8.40;95.20;;;;;;5113084;27;20054;-73
2021/12/01 09:01:13;;;;;;;21.52;1.58;;;8.40;95.10;;;;;;5112177;27;20376;-70
2021/12/01 09:03:38;;;;;;;17.08;1.48;;;8.40;95.10;;;;;;5112972;27;20123;-73
2021/12/01 09:06:05;;;;;;;22.20;1.30;;;8.40;95.00;;;;;;5112785;27;20043;-72
2021/12/01 09:08:30;;;;;;;21.88;1.90;;;8.40;94.80;;;;;;5113272;27;20466;-76
2021/12/01 09:10:59;;;;;;;19.35;2.45;;;8.40;94.60;;;;;;5112624;27;20047;-72
2021/12/01 09:13:28;;;;;;;22.35;1.92;;;8.40;94.30;;;;;;5112894;27;20099;-75
2021/12/01 09:15:54;;;;;;;19.35;2.20;;;8.40;94.40;;;;;;5112422;27;20062;-77
2021/12/01 09:18:20;;;;;;;16.95;1.85;;;8.40;94.50;;;;;;5112640;28;20099;-74
2021/12/01 09:20:46;;;;;;;11.63;1.67;;;8.30;94.60;;;;;;5112666;27;20074;-73
2021/12/01 09:23:12;;;;;;;16.90;1.48;;;8.40;94.70;;;;;;5112531;27;20463;-73
2021/12/01 09:25:38;;;;;;;15.57;1.83;;;8.40;94.70;;;;;;5096009;27;20054;-75
2021/12/01 09:28:04;;;;;;;30.27;2.40;;;8.30;94.70;;;;;;5112367;27;20349;-71
2021/12/01 09:30:29;;;;;;;21.10;2.38;;;8.40;94.70;;;;;;5113084;28;20043;-72
2021/12/01 09:32:55;;;;;;;22.70;2.70;;;8.40;94.70;;;;;;5111646;28;20547;-71
2021/12/01 09:35:21;;;;;;;31.50;2.25;;;8.50;94.50;;;;;;5112262;28;20437;-73
2021/12/01 09:37:46;;;;;;;23.92;3.05;;;8.40;94.60;;;;;;5112476;28;20130;-73
2021/12/01 09:40:17;;;;;;;33.08;3.15;;;8.50;94.80;;;;;;5112448;28;20035;-73
2021/12/01 09:42:46;;;;;;;25.42;1.80;;;8.50;94.50;;;;;;5112539;28;20050;-75
2021/12/01 09:45:13;;;;;;;26.80;2.17;;;8.60;94.00;;;;;;5112638;28;20414;-75
2021/12/01 09:47:39;;;;;;;22.55;2.60;;;8.70;93.70;;;;;;5112610;28;20043;-73
2021/12/01 09:50:07;;;;;;;21.02;2.17;;;8.80;93.50;;;;;;5112359;28;20062;-71
2021/12/01 09:52:33;;;;;;;26.73;3.13;;;8.80;92.90;;;;;;5112311;28;20373;-72
2021/12/01 09:54:58;;;;;;;22.48;2.63;;;8.80;92.60;;;;;;5095457;28;20055;-71
2021/12/01 09:57:24;;;;;;;25.33;2.65;;;8.80;91.70;;;;;;5112417;28;20464;-76
2021/12/01 09:59:50;;;;;;;20.52;2.08;;;8.80;92.00;;;;;;5112158;28;20406;-71
2021/12/01 10:02:17;;;;;;;19.17;1.77;;;8.80;91.30;;;;;;5112150;28;20049;-71
2021/12/01 10:04:43;;;;;;;13.70;1.45;;;8.70;91.70;;;;;;5112490;28;20138;-71
2021/12/01 10:07:16;;;;;;;18.85;2.13;;;8.80;91.60;;;;;;5095097;28;20559;-71
2021/12/01 10:09:48;;;;;;;16.27;1.70;;;8.60;91.20;;;;;;5112398;28;20047;-72
2021/12/01 10:12:15;;;;;;;10.75;1.23;;;8.60;91.50;;;;;;5113471;27;20519;-72
2021/12/01 10:14:47;;;;;;;17.13;1.02;;;8.50;91.20;;;;;;5116287;27;20050;-71
2021/12/01 10:17:14;;;;;;;15.25;0.88;;;8.40;90.30;;;;;;5116069;27;20075;-74
2021/12/01 10:19:39;;;;;;;20.17;1.63;;;8.40;90.70;;;;;;5116028;27;20039;-73
2021/12/01 10:22:10;;;;;;;20.20;2.28;;;8.40;90.70;;;;;;5115457;27;20061;-73
2021/12/01 10:24:39;;;;;;;33.35;3.65;;;8.40;91.40;;;;;;5099071;27;20082;-77
2021/12/01 10:27:11;;;;;;;30.52;3.33;;;8.50;92.00;;;;;;5115705;27;20126;-72
2021/12/01 10:29:48;;;;;;;32.53;3.28;;;8.60;92.20;;;;;;5116014;27;20065;-73
2021/12/01 10:32:16;;;;;;;23.83;2.22;;;8.60;90.80;;;;;;5115562;27;20070;-72
2021/12/01 10:34:50;;;;;;;19.00;1.42;;;8.60;90.20;;;;;;5115891;27;20093;-72
2021/12/01 10:37:22;;;;;;;23.00;1.92;;;8.70;90.10;;;;;;5115885;27;20065;-73
2021/12/01 10:40:04;;;;;;;21.63;2.63;;;8.70;89.30;;;;;;5115791;27;20047;-72
2021/12/01 10:42:31;;;;;;;24.85;2.42;;;8.80;89.40;;;;;;5115953;27;20047;-72
2021/12/01 10:45:04;;;;;;;22.38;2.05;;;8.90;90.40;;;;;;5098886;27;20054;-74
2021/12/01 10:47:41;;;;;;;19.50;2.20;;;8.90;90.00;;;;;;5116181;27;20095;-77
2021/12/01 10:50:11;;;;;;;27.77;3.85;;;9.00;89.70;;;;;;5115196;27;20047;-72
2021/12/01 10:52:42;;;;;;;23.52;3.28;;;9.10;89.40;;;;;;5115482;27;20038;-75
2021/12/01 10:55:15;;;;;;;23.67;2.78;;;9.10;89.90;;;;;;5115239;27;20047;-73
2021/12/01 10:57:43;;;;;;;30.85;3.15;;;9.10;90.00;;;;;;5115550;27;20126;-73
2021/12/01 11:00:17;;;;;;;27.23;3.58;;;9.10;88.80;;;;;;5114897;27;20047;-72
2021/12/01 11:02:43;;;;;;;28.45;3.60;;;9.20;88.10;;;;;;5115366;27;20410;-73
2021/12/01 11:05:08;;;;;;;40.50;5.13;;;9.20;87.40;;;;;;5115082;27;20043;-72
2021/12/01 11:07:35;;;;;;;32.67;3.88;;;9.20;86.60;;;;;;5115417;27;20544;-74
2021/12/01 11:10:19;;;;;;;28.02;3.70;;;9.10;86.00;;;;;;5115359;27;20062;-74
2021/12/01 11:13:02;;;;;;;25.88;3.65;;;9.00;85.20;;;;;;5098355;27;20089;-70
2021/12/01 11:15:52;;;;;;;31.95;5.07;;;8.90;84.90;;;;;;5115601;27;20066;-72
2021/12/01 11:18:24;;;;;;;32.95;3.80;;;8.90;84.80;;;;;;5113443;27;20058;-72
2021/12/01 11:20:55;;;;;;;25.13;3.25;;;8.80;84.20;;;;;;5114558;27;20043;-71
2021/12/01 11:23:33;;;;;;;39.42;3.80;;;8.70;84.00;;;;;;5097569;27;20086;-74
2021/12/01 11:26:13;;;;;;;32.03;3.95;;;8.60;84.60;;;;;;5132898;27;20518;-72
2021/12/01 11:28:44;;;;;;;29.08;3.08;;;8.60;84.90;;;;;;5114951;27;20089;-72
2021/12/01 11:31:24;;;;;;;28.38;4.75;;;8.60;84.00;;;;;;5114657;27;20035;-73
2021/12/01 11:33:55;;;;;;;29.42;3.33;;;8.50;83.80;;;;;;5114552;27;20039;-72
2021/12/01 11:36:46;;;;;;;26.50;3.85;;;8.50;83.40;;;;;;5114594;27;20031;-75
2021/12/01 11:39:19;;;;;;;25.63;3.05;;;8.40;83.10;;;;;;5114424;27;20047;-74
2021/12/01 11:41:48;;;;;;;26.10;3.22;;;8.40;83.00;;;;;;5082256;27;20039;-76
2021/12/01 11:44:17;;;;;;;25.10;2.97;;;8.40;83.60;;;;;;5097825;27;20457;-72
2021/12/01 11:46:43;;;;;;;23.08;3.10;;;8.40;84.20;;;;;;5114757;27;20051;-74
2021/12/01 11:49:15;;;;;;;23.40;3.40;;;8.40;85.00;;;;;;5114109;27;20084;-71
2021/12/01 11:52:00;;;;;;;24.50;2.20;;;8.50;83.10;;;;;;5114270;27;20122;-73
2021/12/01 11:54:27;;;;;;;25.40;3.55;;;8.50;83.60;;;;;;5114197;27;20054;-76
2021/12/01 11:56:59;;;;;;;22.98;2.97;;;8.50;83.30;;;;;;5114045;27;20043;-77
2021/12/01 11:59:32;;;;;;;16.67;1.40;;;8.50;82.50;;;;;;5114342;27;20055;-72
2021/12/01 12:01:59;;;;;;;14.80;1.58;;;8.50;83.00;;;;;;5097800;27;20530;-74
2021/12/01 12:04:28;;;;;;;19.30;1.58;;;8.50;82.70;;;;;;5114817;27;20369;-74
2021/12/01 12:07:25;;;;;;;20.95;1.95;;;8.50;82.20;;;;;;5113866;27;20450;-72
2021/12/01 12:10:29;;;;;;;20.73;1.23;;;8.50;82.40;;;;;;5079077;27;20065;-74
2021/12/01 12:13:07;;;;;;;18.65;2.08;;;8.40;83.70;;;;;;5113851;27;20385;-74
2021/12/01 12:15:52;;;;;;;15.77;1.40;;;8.30;85.30;;;;;;5113990;27;20047;-76
2021/12/01 12:18:36;;;;;;;15.93;1.52;;;8.20;86.60;;;;;;5113502;27;20530;-74
2021/12/01 12:21:22;;;;;;;19.17;2.58;;;8.10;86.90;;;;;;5113800;27;20050;-75
2021/12/01 12:23:49;;;;;;;;;;;8.10;86.70;;;;;;5113978;27;20074;-74
2021/12/01 12:26:38;;;;;;;14.73;1.83;;;8.10;86.80;;;;;;5113449;27;19919;-73
2021/12/01 12:29:14;;;;;;;21.95;1.83;;;8.10;84.90;;;;;;5096519;27;20495;-70
2021/12/01 12:31:41;;;;;;;20.17;2.03;;;8.10;84.90;;;;;;5094539;27;20495;-73
2021/12/01 12:34:16;;;;;;;14.65;2.17;;;8.10;84.30;;;;;;5095286;27;20043;-72
2021/12/01 12:36:49;;;;;;;19.02;2.03;;;8.10;84.50;;;;;;5097304;27;20053;-75
2021/12/01 12:39:17;;;;;;;15.13;1.73;;;8.10;83.20;;;;;;5096452;27;20079;-73
2021/12/01 12:41:55;;;;;;;13.70;1.02;;;8.20;83.40;;;;;;5113476;27;20409;-74
2021/12/01 12:44:31;;;;;;;15.35;1.58;;;8.10;82.70;;;;;;5113225;27;20138;-73
2021/12/01 12:47:25;;;;;;;16.10;1.83;;;8.10;82.90;;;;;;5113796;27;20491;-77
2021/12/01 12:49:52;;;;;;;31.63;2.60;;;8.10;84.10;;;;;;5110519;27;20047;-75
2021/12/01 12:52:24;;;;;;;22.17;2.65;;;8.10;84.40;;;;;;5112973;27;20197;-71
2021/12/01 12:55:00;;;;;;;21.17;2.08;;;8.10;84.20;;;;;;5113137;27;20046;-71
2021/12/01 12:57:51;;;;;;;22.50;2.10;;;8.00;84.00;;;;;;5113025;27;20051;-69
2021/12/01 13:00:40;;;;;;;22.95;2.90;;;8.00;83.80;;;;;;5113181;27;20393;-74